Time;durP1;ratioP1;P1;durP2;ratioP2;P2;SDS_P1;SDS_P2;PMS_P1;PMS_P2;Temp;Humidity;BMP_temperature;BMP_pressure;BME280_temperature;BME280_humidity;BME280_pressure;Samples;Min_cycle;Max_cycle;Signal;HPM_P1;HPM_P2
2022/01/27 00:00:49;;;;;;;;;;;19.50;56.80;;;;;;5076597;28;1368;-69
2022/01/27 00:05:46;;;;;;;;;;;19.50;56.80;;;;;;5076766;28;1351;-68
2022/01/27 00:08:15;;;;;;;;;;;19.50;56.80;;;;;;5075020;28;1539;-69
2022/01/27 00:10:58;;;;;;;;;;;19.50;56.90;;;;;;5075353;28;1395;-69
2022/01/27 00:13:28;;;;;;;;;;;19.50;56.90;;;;;;5076434;28;1967;-69
2022/01/27 00:16:10;;;;;;;;;;;19.50;56.90;;;;;;5074981;28;1822;-69
2022/01/27 00:18:35;;;;;;;;;;;19.50;56.90;;;;;;5075007;28;1614;-69
2022/01/27 00:21:00;;;;;;;;;;;19.50;56.90;;;;;;5074903;28;1687;-69
2022/01/27 00:23:26;;;;;;;;;;;19.50;56.80;;;;;;5076282;28;1342;-66
2022/01/27 00:25:51;;;;;;;;;;;19.50;56.80;;;;;;5076020;28;1477;-68
2022/01/27 00:28:17;;;;;;;;;;;19.50;56.80;;;;;;5075791;28;1649;-67
2022/01/27 00:30:42;;;;;;;;;;;19.50;56.80;;;;;;5075697;28;1508;-67
2022/01/27 00:33:08;;;;;;;;;;;19.50;56.80;;;;;;5075892;28;1902;-68
2022/01/27 00:35:33;;;;;;;;;;;19.50;56.80;;;;;;5075978;28;1428;-68
2022/01/27 00:37:59;;;;;;;;;;;19.50;56.80;;;;;;5075475;28;1431;-67
2022/01/27 00:40:24;;;;;;;;;;;19.50;56.80;;;;;;5074665;28;1756;-69
2022/01/27 00:42:50;;;;;;;;;;;19.50;56.80;;;;;;5074693;28;1721;-68
2022/01/27 00:45:15;;;;;;;;;;;19.50;56.80;;;;;;5074454;28;1677;-68
2022/01/27 00:47:40;;;;;;;;;;;19.50;56.70;;;;;;5074251;28;1592;-68
2022/01/27 00:50:06;;;;;;;;;;;19.50;56.70;;;;;;5075752;28;1557;-69
2022/01/27 00:52:42;;;;;;;;;;;19.50;56.80;;;;;;5075568;28;1933;-69
2022/01/27 00:55:08;;;;;;;;;;;19.50;56.80;;;;;;5075127;28;1700;-68
2022/01/27 01:00:04;;;;;;;;;;;19.50;56.80;;;;;;5074246;28;1713;-68
2022/01/27 01:09:08;;;;;;;;;;;19.50;56.80;;;;;;5062483;28;1762;-69
2022/01/27 01:16:36;;;;;;;;;;;19.50;56.90;;;;;;5074951;28;1655;-67
2022/01/27 01:21:51;;;;;;;;;;;19.40;56.90;;;;;;5075304;28;1370;-68
2022/01/27 01:32:46;;;;;;;;;;;19.40;56.90;;;;;;5074981;28;1910;-68
2022/01/27 01:35:11;;;;;;;;;;;19.40;57.00;;;;;;5074973;28;1413;-68
2022/01/27 01:37:39;;;;;;;;;;;19.40;57.00;;;;;;5074415;28;1689;-68
2022/01/27 01:40:05;;;;;;;;;;;19.40;57.00;;;;;;5074697;28;1469;-68
2022/01/27 01:42:31;;;;;;;;;;;19.40;57.00;;;;;;5075174;28;1390;-68
2022/01/27 01:45:00;;;;;;;;;;;19.40;57.00;;;;;;5074677;28;1545;-68
2022/01/27 01:47:26;;;;;;;;;;;19.40;57.10;;;;;;5074319;28;1682;-69
2022/01/27 01:49:51;;;;;;;;;;;19.40;57.10;;;;;;5074596;28;1687;-68
2022/01/27 01:52:17;;;;;;;;;;;19.30;57.00;;;;;;5074485;28;1645;-68
2022/01/27 01:54:42;;;;;;;;;;;19.30;57.00;;;;;;5073218;28;1969;-68
2022/01/27 01:57:08;;;;;;;;;;;19.40;57.10;;;;;;5074096;28;1671;-67
2022/01/27 01:59:35;;;;;;;;;;;19.40;57.10;;;;;;5074341;28;1641;-67
2022/01/27 02:02:01;;;;;;;;;;;19.40;57.10;;;;;;5074270;28;1387;-67
2022/01/27 02:04:26;;;;;;;;;;;19.30;57.10;;;;;;5074248;28;1670;-67
2022/01/27 02:06:56;;;;;;;;;;;19.30;57.10;;;;;;5073312;28;1426;-69
2022/01/27 02:09:50;;;;;;;;;;;19.30;57.10;;;;;;5074537;28;1418;-69
2022/01/27 02:18:01;;;;;;;;;;;19.30;57.20;;;;;;5073620;28;1626;-69
2022/01/27 02:20:30;;;;;;;;;;;19.30;57.20;;;;;;5072812;28;1387;-70
2022/01/27 02:22:55;;;;;;;;;;;19.30;57.20;;;;;;5072632;28;1017;-69
2022/01/27 02:25:21;;;;;;;;;;;19.30;57.20;;;;;;5073758;28;1674;-69
2022/01/27 02:27:46;;;;;;;;;;;19.30;57.20;;;;;;5073408;28;1390;-69
2022/01/27 02:30:12;;;;;;;;;;;19.30;57.20;;;;;;5073559;28;1537;-69
2022/01/27 02:32:37;;;;;;;;;;;19.30;57.20;;;;;;5072451;28;1977;-67
2022/01/27 02:35:03;;;;;;;;;;;19.30;57.20;;;;;;5073593;28;1383;-69
2022/01/27 02:37:29;;;;;;;;;;;19.30;57.20;;;;;;5072025;28;1377;-69
2022/01/27 02:39:54;;;;;;;;;;;19.30;57.20;;;;;;5070759;28;1406;-67
2022/01/27 02:42:29;;;;;;;;;;;19.30;57.20;;;;;;5072527;28;1689;-67
2022/01/27 02:45:00;;;;;;;;;;;19.30;57.20;;;;;;5073702;28;1667;-67
2022/01/27 02:47:26;;;;;;;;;;;19.30;57.10;;;;;;5073225;28;1584;-67
2022/01/27 02:49:51;;;;;;;;;;;19.30;57.10;;;;;;5073408;28;1403;-68
2022/01/27 02:52:17;;;;;;;;;;;19.30;57.10;;;;;;5072130;28;1659;-67
2022/01/27 02:54:42;;;;;;;;;;;19.40;57.10;;;;;;5071959;28;1951;-69
2022/01/27 02:57:08;;;;;;;;;;;19.40;57.00;;;;;;5072917;28;1278;-68
2022/01/27 02:59:33;;;;;;;;;;;19.40;56.90;;;;;;5072063;28;1726;-69
2022/01/27 03:01:59;;;;;;;;;;;19.50;56.90;;;;;;5072480;28;1482;-68
2022/01/27 03:04:24;;;;;;;;;;;19.50;56.80;;;;;;5072022;28;1391;-68
2022/01/27 03:06:50;;;;;;;;;;;19.50;56.60;;;;;;5073067;28;1653;-68
2022/01/27 03:09:15;;;;;;;;;;;19.60;56.50;;;;;;5071646;28;1745;-68
2022/01/27 03:11:45;;;;;;;;;;;19.60;56.40;;;;;;5073138;28;1397;-67
2022/01/27 03:14:11;;;;;;;;;;;19.70;56.40;;;;;;5071885;28;1898;-69
2022/01/27 03:16:36;;;;;;;;;;;19.70;56.20;;;;;;5071757;28;1675;-68
2022/01/27 03:19:02;;;;;;;;;;;19.70;56.20;;;;;;5071937;28;1371;-67
2022/01/27 03:21:27;;;;;;;;;;;19.70;56.10;;;;;;5067470;28;1269;-67
2022/01/27 03:23:52;;;;;;;;;;;19.80;56.00;;;;;;5049950;28;1617;-67
2022/01/27 03:26:18;;;;;;;;;;;19.80;56.00;;;;;;5069659;28;1393;-66
2022/01/27 03:28:46;;;;;;;;;;;19.80;55.90;;;;;;5069735;28;1332;-67
2022/01/27 03:31:12;;;;;;;;;;;19.80;56.50;;;;;;5071479;28;1056;-67
2022/01/27 03:33:39;;;;;;;;;;;19.80;55.90;;;;;;5072217;28;1910;-67
2022/01/27 03:36:04;;;;;;;;;;;19.80;55.80;;;;;;5072163;28;1246;-68
2022/01/27 03:38:30;;;;;;;;;;;19.80;55.80;;;;;;5070118;28;1428;-67
2022/01/27 03:40:55;;;;;;;;;;;19.80;55.80;;;;;;5072169;28;1047;-68
2022/01/27 03:43:21;;;;;;;;;;;19.80;55.80;;;;;;5072598;28;1137;-68
2022/01/27 03:45:46;;;;;;;;;;;19.80;55.80;;;;;;5072760;28;1051;-68
2022/01/27 03:48:12;;;;;;;;;;;19.80;55.80;;;;;;5071072;28;1635;-68
2022/01/27 03:50:37;;;;;;;;;;;19.80;55.80;;;;;;5072460;28;1066;-67
2022/01/27 03:53:02;;;;;;;;;;;19.80;55.80;;;;;;5072485;28;1910;-68
2022/01/27 03:55:28;;;;;;;;;;;19.80;55.80;;;;;;5072545;28;1070;-68
2022/01/27 03:57:54;;;;;;;;;;;19.90;55.80;;;;;;5070997;28;1274;-69
2022/01/27 04:00:19;;;;;;;;;;;19.80;56.40;;;;;;5071380;28;1290;-67
2022/01/27 04:03:04;;;;;;;;;;;19.80;55.80;;;;;;5071394;28;1095;-67
2022/01/27 04:05:34;;;;;;;;;;;19.80;55.80;;;;;;5072525;28;1114;-68
2022/01/27 04:08:00;;;;;;;;;;;19.80;55.80;;;;;;5071047;28;1431;-68
2022/01/27 04:10:25;;;;;;;;;;;19.80;55.80;;;;;;5072008;28;1390;-67
2022/01/27 04:12:51;;;;;;;;;;;19.80;55.80;;;;;;5072364;28;1953;-67
2022/01/27 04:15:16;;;;;;;;;;;19.80;55.80;;;;;;5072380;28;1149;-68
2022/01/27 04:17:42;;;;;;;;;;;19.80;55.90;;;;;;5087543;22;1951;-67
2022/01/27 04:20:07;;;;;;;;;;;19.80;55.80;;;;;;5071327;28;830;-67
2022/01/27 04:22:33;;;;;;;;;;;19.80;55.80;;;;;;5072134;28;1086;-67
2022/01/27 04:24:58;;;;;;;;;;;19.80;55.80;;;;;;5070966;28;1223;-67
2022/01/27 04:27:29;;;;;;;;;;;19.80;55.80;;;;;;5070648;28;1315;-67
2022/01/27 04:29:55;;;;;;;;;;;19.80;55.90;;;;;;5066707;28;1058;-67
2022/01/27 04:32:25;;;;;;;;;;;19.80;55.90;;;;;;5075630;28;1082;-66
2022/01/27 04:34:53;;;;;;;;;;;19.80;55.80;;;;;;5076166;28;1030;-67
2022/01/27 04:37:22;;;;;;;;;;;19.80;55.90;;;;;;5062012;28;1223;-67
2022/01/27 04:40:00;;;;;;;;;;;19.80;55.80;;;;;;5075687;28;1110;-67
2022/01/27 04:42:52;;;;;;;;;;;19.80;55.90;;;;;;5075722;28;1122;-67
2022/01/27 04:45:16;;;;;;;;;;;19.80;55.90;;;;;;5075490;28;1551;-67
2022/01/27 04:47:46;;;;;;;;;;;19.80;55.90;;;;;;5075304;28;1442;-67
2022/01/27 04:50:11;;;;;;;;;;;19.80;55.90;;;;;;5075533;28;1123;-66
2022/01/27 04:52:42;;;;;;;;;;;19.80;55.90;;;;;;5075395;28;1973;-67
2022/01/27 04:55:08;;;;;;;;;;;19.80;55.90;;;;;;5074066;28;1118;-67
2022/01/27 04:57:36;;;;;;;;;;;19.80;55.90;;;;;;5073948;28;1393;-67
2022/01/27 05:00:01;;;;;;;;;;;19.80;55.90;;;;;;5074128;28;1483;-66
2022/01/27 05:02:43;;;;;;;;;;;19.80;55.90;;;;;;5075362;28;1082;-66
2022/01/27 05:05:09;;;;;;;;;;;19.80;55.90;;;;;;5075702;28;1177;-67
2022/01/27 05:07:35;;;;;;;;;;;19.80;55.90;;;;;;5073582;28;1272;-67
2022/01/27 05:10:09;;;;;;;;;;;19.80;55.90;;;;;;5075191;28;1055;-67
2022/01/27 05:12:48;;;;;;;;;;;19.80;55.90;;;;;;5074049;28;1969;-67
2022/01/27 05:15:13;;;;;;;;;;;19.80;55.90;;;;;;5075204;28;1102;-67
2022/01/27 05:17:39;;;;;;;;;;;19.80;55.90;;;;;;5074428;28;1365;-67
2022/01/27 05:20:04;;;;;;;;;;;19.80;56.00;;;;;;5074909;28;1054;-66
2022/01/27 05:22:31;;;;;;;;;;;19.80;56.00;;;;;;5053586;28;1146;-66
2022/01/27 05:24:57;;;;;;;;;;;19.80;56.00;;;;;;5066696;28;1059;-67
2022/01/27 05:27:22;;;;;;;;;;;19.80;56.00;;;;;;5074459;28;1358;-66
2022/01/27 05:29:48;;;;;;;;;;;19.80;56.00;;;;;;5056684;28;1131;-67
2022/01/27 05:32:13;;;;;;;;;;;19.80;56.00;;;;;;5074821;28;1352;-67
2022/01/27 05:34:39;;;;;;;;;;;19.70;55.90;;;;;;5074486;28;1957;-66
2022/01/27 05:37:04;;;;;;;;;;;19.70;56.00;;;;;;5074381;28;1287;-67
2022/01/27 05:39:29;;;;;;;;;;;19.70;56.00;;;;;;5074457;28;1074;-67
2022/01/27 05:41:55;;;;;;;;;;;19.70;56.00;;;;;;5072465;28;1135;-67
2022/01/27 05:44:20;;;;;;;;;;;19.70;56.00;;;;;;5074497;28;984;-67
2022/01/27 05:46:46;;;;;;;;;;;19.70;56.00;;;;;;5073223;28;1358;-67
2022/01/27 05:49:11;;;;;;;;;;;19.70;56.00;;;;;;5074195;28;1078;-67
2022/01/27 05:51:37;;;;;;;;;;;19.70;56.00;;;;;;5074138;28;1063;-66
2022/01/27 05:54:02;;;;;;;;;;;19.70;56.00;;;;;;5074270;28;1965;-67
2022/01/27 05:56:27;;;;;;;;;;;19.70;56.00;;;;;;5073041;28;1272;-67
2022/01/27 05:58:53;;;;;;;;;;;19.70;56.00;;;;;;5074053;28;1117;-67
2022/01/27 06:01:18;;;;;;;;;;;19.80;56.00;;;;;;5074139;28;1101;-67
2022/01/27 06:03:44;;;;;;;;;;;19.80;56.00;;;;;;5072919;28;1401;-67
2022/01/27 06:06:09;;;;;;;;;;;19.80;55.80;;;;;;5073902;28;1098;-66
2022/01/27 06:08:35;;;;;;;;;;;19.90;55.70;;;;;;5073678;28;1310;-67
2022/01/27 06:11:00;;;;;;;;;;;19.90;55.60;;;;;;5055658;28;1185;-67
2022/01/27 06:13:25;;;;;;;;;;;20.00;55.50;;;;;;5073892;28;1902;-67
2022/01/27 06:15:51;;;;;;;;;;;20.00;55.40;;;;;;5055479;28;1317;-67
2022/01/27 06:18:16;;;;;;;;;;;20.10;55.40;;;;;;5073871;28;1283;-66
2022/01/27 06:20:46;;;;;;;;;;;20.10;55.30;;;;;;5073519;28;1202;-66
2022/01/27 06:23:14;;;;;;;;;;;20.10;55.20;;;;;;5073726;28;1063;-66
2022/01/27 06:25:39;;;;;;;;;;;20.10;55.10;;;;;;5072573;28;1087;-67
2022/01/27 06:28:05;;;;;;;;;;;20.20;55.10;;;;;;5073260;28;1197;-67
2022/01/27 06:30:34;;;;;;;;;;;20.20;55.00;;;;;;5073449;28;1128;-67
2022/01/27 06:33:03;;;;;;;;;;;20.20;55.00;;;;;;5073435;28;1905;-66
2022/01/27 06:35:28;;;;;;;;;;;20.20;55.00;;;;;;5073412;28;1177;-67
2022/01/27 06:37:54;;;;;;;;;;;20.20;55.00;;;;;;5073152;28;1247;-67
2022/01/27 06:40:19;;;;;;;;;;;20.20;54.90;;;;;;5073304;28;1133;-66
2022/01/27 06:42:45;;;;;;;;;;;20.20;54.90;;;;;;5073318;28;1111;-67
2022/01/27 06:45:10;;;;;;;;;;;20.20;54.90;;;;;;5073381;28;1355;-66
2022/01/27 06:47:36;;;;;;;;;;;20.20;54.90;;;;;;5071696;28;1211;-66
2022/01/27 06:50:01;;;;;;;;;;;20.20;54.90;;;;;;5051850;28;1276;-67
2022/01/27 06:52:28;;;;;;;;;;;20.20;54.90;;;;;;5062050;28;1303;-67
2022/01/27 06:54:55;;;;;;;;;;;20.20;54.90;;;;;;5073015;28;1902;-67
2022/01/27 06:57:20;;;;;;;;;;;20.20;54.90;;;;;;5071786;28;1274;-67
2022/01/27 06:59:46;;;;;;;;;;;20.20;55.00;;;;;;5073024;28;1046;-67
2022/01/27 07:02:11;;;;;;;;;;;20.20;55.00;;;;;;5071738;28;1345;-66
2022/01/27 07:04:36;;;;;;;;;;;20.20;55.00;;;;;;5072862;28;1051;-67
2022/01/27 07:07:02;;;;;;;;;;;20.20;55.00;;;;;;5071646;28;1246;-67
2022/01/27 07:09:27;;;;;;;;;;;20.20;55.00;;;;;;5067931;28;1728;-66
2022/01/27 07:11:53;;;;;;;;;;;20.20;55.00;;;;;;5061632;28;1870;-66
2022/01/27 07:14:19;;;;;;;;;;;20.20;55.00;;;;;;5070095;28;1906;-66
2022/01/27 07:16:44;;;;;;;;;;;20.20;55.00;;;;;;5072452;28;1364;-64
2022/01/27 07:19:10;;;;;;;;;;;20.20;55.00;;;;;;5072562;28;1227;-66
2022/01/27 07:21:35;;;;;;;;;;;20.20;55.10;;;;;;5072749;28;1110;-66
2022/01/27 07:24:01;;;;;;;;;;;20.10;55.00;;;;;;5071679;28;1436;-66
2022/01/27 07:26:26;;;;;;;;;;;20.10;55.10;;;;;;5072725;28;1280;-64
2022/01/27 07:28:52;;;;;;;;;;;20.10;55.10;;;;;;5068378;28;1504;-67
2022/01/27 07:31:17;;;;;;;;;;;20.10;55.10;;;;;;5069470;28;1022;-66
2022/01/27 07:33:43;;;;;;;;;;;20.10;55.10;;;;;;5068033;28;1902;-65
2022/01/27 07:36:08;;;;;;;;;;;20.10;55.10;;;;;;5072777;28;1260;-65
2022/01/27 07:38:34;;;;;;;;;;;20.10;55.20;;;;;;5072242;28;1300;-66
2022/01/27 07:40:59;;;;;;;;;;;20.10;55.20;;;;;;5072621;28;1335;-65
2022/01/27 07:43:25;;;;;;;;;;;20.10;55.20;;;;;;5072611;28;1082;-67
2022/01/27 07:45:51;;;;;;;;;;;20.10;55.20;;;;;;5071723;28;1059;-66
2022/01/27 07:48:16;;;;;;;;;;;20.10;55.30;;;;;;5072129;28;1306;-66
2022/01/27 07:50:42;;;;;;;;;;;20.10;55.30;;;;;;5072622;28;1050;-66
2022/01/27 07:53:07;;;;;;;;;;;20.10;55.30;;;;;;5072595;28;1897;-66
2022/01/27 07:55:33;;;;;;;;;;;20.10;55.30;;;;;;5072614;28;1379;-66
2022/01/27 07:57:58;;;;;;;;;;;20.10;55.30;;;;;;5072475;28;1357;-66
2022/01/27 08:00:24;;;;;;;;;;;20.10;55.30;;;;;;5071423;28;1068;-65
2022/01/27 08:02:49;;;;;;;;;;;20.20;55.30;;;;;;5072685;28;1256;-66
2022/01/27 08:05:15;;;;;;;;;;;20.30;55.20;;;;;;5075579;28;1292;-66
2022/01/27 08:07:40;;;;;;;;;;;20.40;55.00;;;;;;5074632;28;1397;-66
2022/01/27 08:10:06;;;;;;;;;;;20.50;54.90;;;;;;5076278;28;1117;-66
2022/01/27 08:12:31;;;;;;;;;;;20.60;54.70;;;;;;5076329;28;1231;-66
2022/01/27 08:14:56;;;;;;;;;;;20.70;54.50;;;;;;5075036;28;1960;-65
2022/01/27 08:17:22;;;;;;;;;;;20.80;54.30;;;;;;5075302;28;1343;-66
2022/01/27 08:19:47;;;;;;;;;;;20.90;54.10;;;;;;5074989;28;1345;-66
2022/01/27 08:22:13;;;;;;;;;;;21.00;53.90;;;;;;5076082;28;1313;-66
2022/01/27 08:24:38;;;;;;;;;;;21.10;53.70;;;;;;5076124;28;1087;-66
2022/01/27 08:27:06;;;;;;;;;;;21.10;53.50;;;;;;5075117;28;1464;-66
2022/01/27 08:29:40;;;;;;;;;;;21.20;53.30;;;;;;5076011;28;1141;-66
2022/01/27 08:32:09;;;;;;;;;;;21.20;53.20;;;;;;5075814;28;1360;-66
2022/01/27 08:34:37;;;;;;;;;;;21.30;53.20;;;;;;5075847;28;1961;-66
2022/01/27 08:37:06;;;;;;;;;;;21.30;53.10;;;;;;5075713;28;1639;-66
2022/01/27 08:39:31;;;;;;;;;;;21.30;53.10;;;;;;5075835;28;1378;-66
2022/01/27 08:41:56;;;;;;;;;;;21.40;53.10;;;;;;5074726;28;1313;-66
2022/01/27 08:44:22;;;;;;;;;;;21.40;53.10;;;;;;5075936;28;1098;-66
2022/01/27 08:46:47;;;;;;;;;;;21.30;53.00;;;;;;5075483;28;1419;-66
2022/01/27 08:49:13;;;;;;;;;;;21.40;53.10;;;;;;5075266;28;1058;-66
2022/01/27 08:51:38;;;;;;;;;;;21.40;53.10;;;;;;5074301;28;1056;-66
2022/01/27 08:54:04;;;;;;;;;;;21.40;53.00;;;;;;5074257;28;1954;-66
2022/01/27 08:56:29;;;;;;;;;;;21.40;53.00;;;;;;5075247;28;1290;-66
2022/01/27 08:58:55;;;;;;;;;;;21.40;53.00;;;;;;5075668;28;1078;-66
2022/01/27 09:01:22;;;;;;;;;;;21.40;53.00;;;;;;5073990;28;1320;-66
2022/01/27 09:03:48;;;;;;;;;;;21.40;53.00;;;;;;5074104;28;1387;-66
2022/01/27 09:06:13;;;;;;;;;;;21.30;53.00;;;;;;5075399;28;1375;-66
2022/01/27 09:08:39;;;;;;;;;;;21.30;53.00;;;;;;5073561;28;1349;-66
2022/01/27 09:11:04;;;;;;;;;;;21.30;53.10;;;;;;5075182;28;1294;-66
2022/01/27 09:13:30;;;;;;;;;;;21.30;53.20;;;;;;5074813;28;1955;-66
2022/01/27 09:15:59;;;;;;;;;;;21.20;53.20;;;;;;5074797;28;1381;-65
2022/01/27 09:18:24;;;;;;;;;;;21.20;53.20;;;;;;5074811;28;1321;-66
2022/01/27 09:20:50;;;;;;;;;;;21.20;53.30;;;;;;5073823;28;1515;-66
2022/01/27 09:23:16;;;;;;;;;;;21.20;53.30;;;;;;5075048;28;1351;-66
2022/01/27 09:25:47;;;;;;;;;;;21.20;53.40;;;;;;5074956;28;1300;-66
2022/01/27 09:28:13;;;;;;;;;;;21.20;53.40;;;;;;5074386;28;1428;-66
2022/01/27 09:30:39;;;;;;;;;;;21.10;53.40;;;;;;5073339;28;1173;-66
2022/01/27 09:33:04;;;;;;;;;;;21.10;53.50;;;;;;5074883;28;1914;-66
2022/01/27 09:35:31;;;;;;;;;;;21.10;53.50;;;;;;5074395;28;1189;-66
2022/01/27 09:37:57;;;;;;;;;;;21.10;53.60;;;;;;5074429;28;1378;-66
2022/01/27 09:40:22;;;;;;;;;;;21.10;53.60;;;;;;5074623;28;1308;-66
2022/01/27 09:42:51;;;;;;;;;;;21.10;53.70;;;;;;5073279;28;1294;-66
2022/01/27 09:45:17;;;;;;;;;;;21.10;53.70;;;;;;5073387;28;1333;-66
2022/01/27 09:47:43;;;;;;;;;;;21.00;53.70;;;;;;5073941;28;1203;-66
2022/01/27 09:52:54;;;;;;;;;;;21.00;53.80;;;;;;5063019;28;1910;-66
2022/01/27 09:55:20;;;;;;;;;;;21.00;53.80;;;;;;5073013;28;1371;-66
2022/01/27 09:57:46;;;;;;;;;;;21.00;53.80;;;;;;5072708;28;1303;-66
2022/01/27 10:00:12;;;;;;;;;;;21.00;53.90;;;;;;5056819;28;1477;-66
2022/01/27 10:02:39;;;;;;;;;;;20.90;53.90;;;;;;5074321;28;1260;-66
2022/01/27 10:05:04;;;;;;;;;;;20.90;54.00;;;;;;5067176;28;1680;-66
2022/01/27 10:07:35;;;;;;;;;;;20.90;54.00;;;;;;5072519;28;1363;-66
2022/01/27 10:10:03;;;;;;;;;;;20.90;54.10;;;;;;5074078;28;1238;-66
2022/01/27 10:12:30;;;;;;;;;;;20.90;54.70;;;;;;5073111;28;1352;-66
2022/01/27 10:14:56;;;;;;;;;;;20.80;54.10;;;;;;5070179;28;1926;-67
2022/01/27 10:17:21;;;;;;;;;;;20.80;54.10;;;;;;5065209;28;1204;-67
2022/01/27 10:19:53;;;;;;;;;;;20.80;54.20;;;;;;5069795;28;1829;-69
2022/01/27 10:22:19;;;;;;;;;;;20.80;54.20;;;;;;5070143;28;995;-66
2022/01/27 10:24:44;;;;;;;;;;;20.80;54.20;;;;;;5072626;28;1035;-66
2022/01/27 10:27:24;;;;;;;;;;;20.80;54.30;;;;;;5073152;28;1572;-67
2022/01/27 10:32:40;;;;;;;;;;;20.80;54.90;;;;;;5074267;28;1389;-67
2022/01/27 10:35:06;;;;;;;;;;;20.80;54.30;;;;;;5063732;28;1043;-66
2022/01/27 10:37:50;;;;;;;;;;;20.80;54.30;;;;;;5072171;28;1358;-66
2022/01/27 10:40:21;;;;;;;;;;;20.80;54.30;;;;;;5073262;28;1193;-66
2022/01/27 10:42:57;;;;;;;;;;;20.80;54.30;;;;;;5073500;28;1067;-66
2022/01/27 10:45:22;;;;;;;;;;;20.90;54.20;;;;;;5072007;28;1431;-67
2022/01/27 10:47:48;;;;;;;;;;;20.90;54.20;;;;;;5073084;28;1222;-66
2022/01/27 10:50:14;;;;;;;;;;;20.90;54.20;;;;;;5073480;28;1204;-66
2022/01/27 10:52:45;;;;;;;;;;;20.90;54.10;;;;;;5073174;28;1894;-66
2022/01/27 10:55:14;;;;;;;;;;;20.90;54.10;;;;;;5068287;28;1810;-66
2022/01/27 10:57:40;;;;;;;;;;;21.00;54.10;;;;;;5072576;28;1346;-66
2022/01/27 11:00:05;;;;;;;;;;;21.00;54.00;;;;;;5064726;28;1346;-66
2022/01/27 11:02:31;;;;;;;;;;;21.00;54.00;;;;;;5067666;28;1102;-68
2022/01/27 11:04:56;;;;;;;;;;;21.00;54.00;;;;;;5068579;28;1747;-66
2022/01/27 11:07:24;;;;;;;;;;;21.00;54.00;;;;;;5070357;28;1210;-66
2022/01/27 11:09:50;;;;;;;;;;;21.00;54.00;;;;;;5069306;28;1065;-66
2022/01/27 11:12:18;;;;;;;;;;;21.00;54.00;;;;;;5065187;28;1373;-66
2022/01/27 11:14:45;;;;;;;;;;;21.00;54.00;;;;;;5071715;28;1988;-67
2022/01/27 11:17:15;;;;;;;;;;;21.00;54.10;;;;;;5072697;28;1324;-66
2022/01/27 11:25:49;;;;;;;;;;;20.90;54.40;;;;;;5067868;28;1692;-66
2022/01/27 11:27:33;;;;;;;;;;;20.80;54.50;;;;;;5069622;28;1595;-67
2022/01/27 11:30:18;;;;;;;;;;;20.80;54.60;;;;;;5071595;28;1099;-66
2022/01/27 11:32:52;;;;;;;;;;;20.80;54.60;;;;;;5073009;28;1960;-65
2022/01/27 11:35:18;;;;;;;;;;;20.80;54.70;;;;;;5071944;28;1980;-66
2022/01/27 11:37:48;;;;;;;;;;;20.80;54.70;;;;;;5068172;28;1559;-66
2022/01/27 11:40:13;;;;;;;;;;;20.80;54.80;;;;;;5068700;28;2009;-66
2022/01/27 11:42:42;;;;;;;;;;;20.70;54.80;;;;;;5072559;28;1153;-67
2022/01/27 11:45:23;;;;;;;;;;;20.70;54.90;;;;;;5073923;28;1153;-66
2022/01/27 11:47:52;;;;;;;;;;;20.70;54.90;;;;;;5075190;28;1515;-66
2022/01/27 11:50:30;;;;;;;;;;;20.80;55.00;;;;;;5075368;28;1335;-66
2022/01/27 11:52:56;;;;;;;;;;;20.70;54.90;;;;;;5075700;28;1894;-66
2022/01/27 11:55:36;;;;;;;;;;;20.80;54.90;;;;;;5076448;28;1082;-65
2022/01/27 11:58:11;;;;;;;;;;;20.80;54.80;;;;;;5071822;28;1934;-66
2022/01/27 12:00:38;;;;;;;;;;;20.80;54.90;;;;;;5075107;28;1155;-68
2022/01/27 12:03:05;;;;;;;;;;;20.80;54.90;;;;;;5076715;28;1347;-67
2022/01/27 12:05:31;;;;;;;;;;;20.80;54.80;;;;;;5076585;28;1066;-68
2022/01/27 12:08:08;;;;;;;;;;;20.80;54.80;;;;;;5069743;28;1361;-68
2022/01/27 12:10:41;;;;;;;;;;;20.80;54.90;;;;;;5063375;28;1054;-68
2022/01/27 12:13:29;;;;;;;;;;;20.80;54.80;;;;;;5063318;28;1906;-68
2022/01/27 12:19:02;;;;;;;;;;;20.80;54.80;;;;;;5072073;28;1336;-68
2022/01/27 12:21:28;;;;;;;;;;;20.80;54.70;;;;;;5069864;28;1185;-68
2022/01/27 12:24:16;;;;;;;;;;;20.80;54.80;;;;;;5061342;28;956;-68
2022/01/27 12:26:48;;;;;;;;;;;20.80;54.70;;;;;;5076218;28;1279;-70
2022/01/27 12:29:22;;;;;;;;;;;20.80;54.70;;;;;;5070882;28;1121;-68
2022/01/27 12:31:48;;;;;;;;;;;20.80;54.80;;;;;;5074995;28;1082;-68
2022/01/27 12:34:13;;;;;;;;;;;20.80;54.70;;;;;;5062386;28;1910;-68
2022/01/27 12:36:39;;;;;;;;;;;20.80;54.80;;;;;;5062602;28;1290;-68
2022/01/27 12:39:05;;;;;;;;;;;20.80;54.80;;;;;;5076562;28;1146;-68
2022/01/27 12:41:37;;;;;;;;;;;20.80;54.90;;;;;;5076903;28;1048;-68
2022/01/27 12:44:09;;;;;;;;;;;20.80;54.80;;;;;;5066223;28;1071;-69
2022/01/27 12:46:35;;;;;;;;;;;20.80;54.90;;;;;;5070571;28;1383;-69
2022/01/27 12:49:03;;;;;;;;;;;20.80;54.90;;;;;;5075554;28;1112;-68
2022/01/27 12:51:42;;;;;;;;;;;20.80;54.90;;;;;;5072027;28;1190;-67
2022/01/27 12:54:09;;;;;;;;;;;20.80;54.90;;;;;;5065559;28;1902;-68
2022/01/27 12:56:34;;;;;;;;;;;20.80;54.90;;;;;;5075072;28;1267;-67
2022/01/27 12:59:00;;;;;;;;;;;20.80;55.00;;;;;;5073973;28;1086;-67
2022/01/27 13:01:25;;;;;;;;;;;20.80;55.00;;;;;;5060505;28;1182;-68
2022/01/27 13:04:00;;;;;;;;;;;20.80;55.10;;;;;;5075426;28;1149;-68
2022/01/27 13:06:29;;;;;;;;;;;20.80;55.10;;;;;;5061732;28;1361;-68
2022/01/27 13:09:09;;;;;;;;;;;20.80;55.10;;;;;;5061010;28;1430;-68
2022/01/27 13:11:34;;;;;;;;;;;20.80;55.00;;;;;;5055054;28;1457;-68
2022/01/27 13:14:06;;;;;;;;;;;20.90;55.00;;;;;;5069894;28;1902;-69
2022/01/27 13:16:43;;;;;;;;;;;20.80;55.10;;;;;;5075721;28;1474;-69
2022/01/27 13:19:21;;;;;;;;;;;20.80;55.10;;;;;;5075074;28;1271;-68
2022/01/27 13:21:51;;;;;;;;;;;20.90;55.00;;;;;;5075261;28;855;-69
2022/01/27 13:24:18;;;;;;;;;;;20.90;54.90;;;;;;5069971;28;1110;-67
2022/01/27 13:26:45;;;;;;;;;;;20.90;54.80;;;;;;5065850;28;1431;-68
2022/01/27 13:29:14;;;;;;;;;;;20.90;54.80;;;;;;5066316;28;1168;-69
2022/01/27 13:31:39;;;;;;;;;;;20.90;54.70;;;;;;5066892;28;1995;-68
2022/01/27 13:34:04;;;;;;;;;;;20.90;54.70;;;;;;5054596;28;1906;-69
2022/01/27 13:36:34;;;;;;;;;;;20.90;54.60;;;;;;5066264;28;1457;-66
2022/01/27 13:41:36;;;;;;;;;;;20.90;54.70;;;;;;5072806;28;1018;-67
2022/01/27 13:44:02;;;;;;;;;;;20.90;54.60;;;;;;5065005;28;1173;-67
2022/01/27 13:46:34;;;;;;;;;;;20.90;54.60;;;;;;5073139;28;1353;-67
2022/01/27 13:49:10;;;;;;;;;;;20.90;54.60;;;;;;5074161;28;1276;-67
2022/01/27 13:51:54;;;;;;;;;;;20.90;54.70;;;;;;5074524;28;1381;-67
2022/01/27 13:54:20;;;;;;;;;;;20.90;54.70;;;;;;5071760;28;2013;-69
2022/01/27 13:56:50;;;;;;;;;;;20.90;54.60;;;;;;5074102;28;1445;-68
2022/01/27 13:59:18;;;;;;;;;;;20.80;54.60;;;;;;5074044;28;1397;-68
2022/01/27 14:01:44;;;;;;;;;;;20.90;54.60;;;;;;5073325;28;999;-67
2022/01/27 14:04:10;;;;;;;;;;;20.80;54.70;;;;;;5072965;28;1339;-67
2022/01/27 14:06:50;;;;;;;;;;;20.80;54.70;;;;;;5074158;28;1276;-67
2022/01/27 14:09:16;;;;;;;;;;;20.80;54.70;;;;;;5073626;28;1420;-67
2022/01/27 14:11:42;;;;;;;;;;;20.80;54.70;;;;;;5074053;28;1396;-67
2022/01/27 14:14:08;;;;;;;;;;;20.80;54.80;;;;;;5073834;28;1906;-68
2022/01/27 14:16:33;;;;;;;;;;;20.80;54.80;;;;;;5073893;28;1344;-67
2022/01/27 14:19:11;;;;;;;;;;;20.70;54.80;;;;;;5073398;28;1296;-67
2022/01/27 14:21:44;;;;;;;;;;;20.70;54.80;;;;;;5072713;28;1369;-68
2022/01/27 14:24:12;;;;;;;;;;;20.80;54.90;;;;;;5069780;28;1929;-68
2022/01/27 14:26:44;;;;;;;;;;;20.70;55.40;;;;;;5063234;28;1862;-67
2022/01/27 14:29:10;;;;;;;;;;;20.70;54.90;;;;;;5064120;28;1896;-67
2022/01/27 14:31:37;;;;;;;;;;;20.70;54.90;;;;;;5061814;28;1137;-68
2022/01/27 14:34:02;;;;;;;;;;;20.70;54.90;;;;;;5066101;28;1969;-68
2022/01/27 14:36:28;;;;;;;;;;;20.70;54.90;;;;;;5072493;28;1275;-67
2022/01/27 14:38:53;;;;;;;;;;;20.70;54.90;;;;;;5073202;28;1431;-67
2022/01/27 14:41:20;;;;;;;;;;;20.70;55.00;;;;;;5072371;28;1056;-68
2022/01/27 14:43:46;;;;;;;;;;;20.70;55.00;;;;;;5072589;28;1344;-68
2022/01/27 14:46:17;;;;;;;;;;;20.60;54.90;;;;;;5071920;28;1517;-67
2022/01/27 14:48:46;;;;;;;;;;;20.60;55.30;;;;;;5071417;28;1227;-68
2022/01/27 14:51:13;;;;;;;;;;;20.60;55.30;;;;;;5072051;28;1414;-67
2022/01/27 14:53:39;;;;;;;;;;;20.60;55.60;;;;;;5072370;28;1951;-67
2022/01/27 14:56:05;;;;;;;;;;;20.60;55.50;;;;;;5071745;28;1071;-67
2022/01/27 14:58:30;;;;;;;;;;;20.60;55.60;;;;;;5071924;28;1189;-67
2022/01/27 15:00:56;;;;;;;;;;;20.60;55.60;;;;;;5072432;28;1072;-67
2022/01/27 15:03:21;;;;;;;;;;;20.60;55.70;;;;;;5073134;28;1374;-68
2022/01/27 15:05:47;;;;;;;;;;;20.60;55.70;;;;;;5072607;28;1367;-67
2022/01/27 15:08:12;;;;;;;;;;;20.60;55.80;;;;;;5072822;28;1399;-67
2022/01/27 15:10:40;;;;;;;;;;;20.60;55.90;;;;;;5072874;28;1404;-67
2022/01/27 15:13:09;;;;;;;;;;;20.60;55.90;;;;;;5071500;28;1898;-67
2022/01/27 15:21:03;;;;;;;;;;;20.50;55.90;;;;;;5071784;28;1110;-68
2022/01/27 15:23:28;;;;;;;;;;;20.50;56.10;;;;;;5070621;28;1286;-68
2022/01/27 15:25:55;;;;;;;;;;;20.60;56.20;;;;;;5070629;28;1218;-67
2022/01/27 15:28:21;;;;;;;;;;;20.60;56.20;;;;;;5071365;28;1235;-68